sensor_id;sensor_type;location;lat;lon;timestamp;temperature;humidity
4687;DHT22;2357;47.316;-1.348;2023-02-26T00:02:16;6.60;99.90
4687;DHT22;2357;47.316;-1.348;2023-02-26T00:04:42;6.50;99.90
4687;DHT22;2357;47.316;-1.348;2023-02-26T00:07:07;6.50;99.90
4687;DHT22;2357;47.316;-1.348;2023-02-26T00:09:33;6.50;99.90
4687;DHT22;2357;47.316;-1.348;2023-02-26T00:11:59;6.40;99.90
4687;DHT22;2357;47.316;-1.348;2023-02-26T00:14:26;6.40;99.90
4687;DHT22;2357;47.316;-1.348;2023-02-26T00:19:57;6.30;99.90
4687;DHT22;2357;47.316;-1.348;2023-02-26T00:22:23;6.20;99.90
4687;DHT22;2357;47.316;-1.348;2023-02-26T00:24:48;6.20;99.90
4687;DHT22;2357;47.316;-1.348;2023-02-26T00:27:14;6.10;99.90
4687;DHT22;2357;47.316;-1.348;2023-02-26T00:29:40;6.00;99.90
4687;DHT22;2357;47.316;-1.348;2023-02-26T00:32:06;6.10;99.90
4687;DHT22;2357;47.316;-1.348;2023-02-26T00:34:32;6.00;99.90
4687;DHT22;2357;47.316;-1.348;2023-02-26T00:42:12;5.90;99.90
4687;DHT22;2357;47.316;-1.348;2023-02-26T00:44:38;5.90;99.90
4687;DHT22;2357;47.316;-1.348;2023-02-26T00:50:04;6.00;99.90
4687;DHT22;2357;47.316;-1.348;2023-02-26T00:55:05;5.70;99.90
4687;DHT22;2357;47.316;-1.348;2023-02-26T00:57:31;5.80;99.90
4687;DHT22;2357;47.316;-1.348;2023-02-26T00:59:56;5.80;99.90
4687;DHT22;2357;47.316;-1.348;2023-02-26T01:02:22;5.80;99.90
4687;DHT22;2357;47.316;-1.348;2023-02-26T01:04:48;5.70;99.90
4687;DHT22;2357;47.316;-1.348;2023-02-26T01:07:14;5.70;99.90
4687;DHT22;2357;47.316;-1.348;2023-02-26T01:09:40;5.70;99.90
4687;DHT22;2357;47.316;-1.348;2023-02-26T01:12:08;5.70;99.90
4687;DHT22;2357;47.316;-1.348;2023-02-26T01:14:34;5.60;99.90
4687;DHT22;2357;47.316;-1.348;2023-02-26T01:17:14;5.60;99.90
4687;DHT22;2357;47.316;-1.348;2023-02-26T01:20:08;5.50;99.90
4687;DHT22;2357;47.316;-1.348;2023-02-26T01:28:11;5.60;99.90
4687;DHT22;2357;47.316;-1.348;2023-02-26T01:30:37;5.60;99.90
4687;DHT22;2357;47.316;-1.348;2023-02-26T01:36:02;5.40;99.90
4687;DHT22;2357;47.316;-1.348;2023-02-26T01:38:56;5.30;99.90
4687;DHT22;2357;47.316;-1.348;2023-02-26T01:41:55;5.40;99.90
4687;DHT22;2357;47.316;-1.348;2023-02-26T01:49:43;5.40;99.90
4687;DHT22;2357;47.316;-1.348;2023-02-26T01:54:56;5.00;99.90
4687;DHT22;2357;47.316;-1.348;2023-02-26T01:57:22;5.00;99.90
4687;DHT22;2357;47.316;-1.348;2023-02-26T01:59:50;5.00;99.90
4687;DHT22;2357;47.316;-1.348;2023-02-26T02:02:26;5.10;99.90
4687;DHT22;2357;47.316;-1.348;2023-02-26T02:04:52;5.20;99.90
4687;DHT22;2357;47.316;-1.348;2023-02-26T02:07:18;5.20;99.90
4687;DHT22;2357;47.316;-1.348;2023-02-26T02:09:43;5.10;99.90
4687;DHT22;2357;47.316;-1.348;2023-02-26T02:15:20;5.00;99.90
4687;DHT22;2357;47.316;-1.348;2023-02-26T02:23:54;4.90;99.90
4687;DHT22;2357;47.316;-1.348;2023-02-26T02:38:03;4.80;99.90
4687;DHT22;2357;47.316;-1.348;2023-02-26T02:40:35;4.80;99.90
4687;DHT22;2357;47.316;-1.348;2023-02-26T02:43:06;4.90;99.90
4687;DHT22;2357;47.316;-1.348;2023-02-26T02:45:49;4.80;99.90
4687;DHT22;2357;47.316;-1.348;2023-02-26T02:48:29;4.80;99.90
4687;DHT22;2357;47.316;-1.348;2023-02-26T02:51:27;4.70;99.90
4687;DHT22;2357;47.316;-1.348;2023-02-26T02:54:10;4.80;99.90
4687;DHT22;2357;47.316;-1.348;2023-02-26T02:56:49;4.70;99.90
4687;DHT22;2357;47.316;-1.348;2023-02-26T02:59:46;4.70;99.90
4687;DHT22;2357;47.316;-1.348;2023-02-26T03:02:20;4.70;99.90
4687;DHT22;2357;47.316;-1.348;2023-02-26T03:04:48;4.70;99.90
4687;DHT22;2357;47.316;-1.348;2023-02-26T03:07:14;4.60;99.90
4687;DHT22;2357;47.316;-1.348;2023-02-26T03:09:40;4.60;99.90
4687;DHT22;2357;47.316;-1.348;2023-02-26T03:12:06;4.60;99.90
4687;DHT22;2357;47.316;-1.348;2023-02-26T03:14:32;4.60;99.90
4687;DHT22;2357;47.316;-1.348;2023-02-26T03:20:12;4.70;99.90
4687;DHT22;2357;47.316;-1.348;2023-02-26T03:23:10;4.60;99.90
4687;DHT22;2357;47.316;-1.348;2023-02-26T03:26:02;4.50;99.90
4687;DHT22;2357;47.316;-1.348;2023-02-26T03:28:51;4.50;99.90
4687;DHT22;2357;47.316;-1.348;2023-02-26T03:34:03;4.30;99.90
4687;DHT22;2357;47.316;-1.348;2023-02-26T03:36:47;4.40;99.90
4687;DHT22;2357;47.316;-1.348;2023-02-26T03:39:26;4.30;99.90
4687;DHT22;2357;47.316;-1.348;2023-02-26T03:44:27;4.30;99.90
4687;DHT22;2357;47.316;-1.348;2023-02-26T03:46:59;4.40;99.90
4687;DHT22;2357;47.316;-1.348;2023-02-26T03:49:37;4.30;99.90
4687;DHT22;2357;47.316;-1.348;2023-02-26T03:52:05;4.30;99.90
4687;DHT22;2357;47.316;-1.348;2023-02-26T03:54:41;4.40;99.90
4687;DHT22;2357;47.316;-1.348;2023-02-26T03:57:07;4.30;99.90
4687;DHT22;2357;47.316;-1.348;2023-02-26T03:59:34;4.30;99.90
4687;DHT22;2357;47.316;-1.348;2023-02-26T04:02:08;4.20;99.90
4687;DHT22;2357;47.316;-1.348;2023-02-26T04:04:55;4.30;99.90
4687;DHT22;2357;47.316;-1.348;2023-02-26T04:07:21;4.10;99.90
4687;DHT22;2357;47.316;-1.348;2023-02-26T04:09:49;4.10;99.90
4687;DHT22;2357;47.316;-1.348;2023-02-26T04:12:24;4.20;99.90
4687;DHT22;2357;47.316;-1.348;2023-02-26T04:14:50;4.10;99.90
4687;DHT22;2357;47.316;-1.348;2023-02-26T04:17:15;4.00;99.90
4687;DHT22;2357;47.316;-1.348;2023-02-26T04:19:41;4.10;99.90
4687;DHT22;2357;47.316;-1.348;2023-02-26T04:22:08;4.00;99.90
4687;DHT22;2357;47.316;-1.348;2023-02-26T04:24:33;4.00;99.90
4687;DHT22;2357;47.316;-1.348;2023-02-26T04:26:59;4.00;99.90
4687;DHT22;2357;47.316;-1.348;2023-02-26T04:29:25;3.90;99.90
4687;DHT22;2357;47.316;-1.348;2023-02-26T04:31:50;3.80;99.90
4687;DHT22;2357;47.316;-1.348;2023-02-26T04:34:16;3.80;99.90
4687;DHT22;2357;47.316;-1.348;2023-02-26T04:36:41;3.90;99.90
4687;DHT22;2357;47.316;-1.348;2023-02-26T04:39:07;3.90;99.90
4687;DHT22;2357;47.316;-1.348;2023-02-26T04:41:35;3.90;99.90
4687;DHT22;2357;47.316;-1.348;2023-02-26T04:44:01;3.80;99.90
4687;DHT22;2357;47.316;-1.348;2023-02-26T04:46:26;3.80;99.90
4687;DHT22;2357;47.316;-1.348;2023-02-26T04:48:52;3.70;99.90
4687;DHT22;2357;47.316;-1.348;2023-02-26T04:51:17;3.70;99.90
4687;DHT22;2357;47.316;-1.348;2023-02-26T04:53:43;3.70;99.90
4687;DHT22;2357;47.316;-1.348;2023-02-26T04:56:09;3.70;99.90
4687;DHT22;2357;47.316;-1.348;2023-02-26T04:58:35;3.60;99.90
4687;DHT22;2357;47.316;-1.348;2023-02-26T05:01:01;3.60;99.90
4687;DHT22;2357;47.316;-1.348;2023-02-26T05:03:26;3.60;99.90
4687;DHT22;2357;47.316;-1.348;2023-02-26T05:05:52;3.50;99.90
4687;DHT22;2357;47.316;-1.348;2023-02-26T05:08:18;3.50;99.90
4687;DHT22;2357;47.316;-1.348;2023-02-26T05:10:44;3.60;99.90
4687;DHT22;2357;47.316;-1.348;2023-02-26T05:13:10;3.50;99.90
4687;DHT22;2357;47.316;-1.348;2023-02-26T05:15:36;3.50;99.90
4687;DHT22;2357;47.316;-1.348;2023-02-26T05:18:01;3.40;99.90
4687;DHT22;2357;47.316;-1.348;2023-02-26T05:20:27;3.40;99.90
4687;DHT22;2357;47.316;-1.348;2023-02-26T05:22:52;3.40;99.90
4687;DHT22;2357;47.316;-1.348;2023-02-26T05:25:18;3.40;99.90
4687;DHT22;2357;47.316;-1.348;2023-02-26T05:27:44;3.30;99.90
4687;DHT22;2357;47.316;-1.348;2023-02-26T05:30:13;3.40;99.90
4687;DHT22;2357;47.316;-1.348;2023-02-26T05:32:39;3.30;99.90
4687;DHT22;2357;47.316;-1.348;2023-02-26T05:35:05;3.30;99.90
4687;DHT22;2357;47.316;-1.348;2023-02-26T05:37:31;3.30;99.90
4687;DHT22;2357;47.316;-1.348;2023-02-26T05:39:57;3.30;99.90
4687;DHT22;2357;47.316;-1.348;2023-02-26T05:42:23;3.20;99.90
4687;DHT22;2357;47.316;-1.348;2023-02-26T05:44:49;3.20;99.90
4687;DHT22;2357;47.316;-1.348;2023-02-26T05:47:15;3.20;99.90
4687;DHT22;2357;47.316;-1.348;2023-02-26T05:49:41;3.30;99.90
4687;DHT22;2357;47.316;-1.348;2023-02-26T05:52:07;3.30;99.90
4687;DHT22;2357;47.316;-1.348;2023-02-26T05:54:32;3.20;99.90
4687;DHT22;2357;47.316;-1.348;2023-02-26T05:56:58;3.30;99.90
4687;DHT22;2357;47.316;-1.348;2023-02-26T05:59:24;3.30;99.90
4687;DHT22;2357;47.316;-1.348;2023-02-26T06:01:50;3.30;99.90
4687;DHT22;2357;47.316;-1.348;2023-02-26T06:04:16;3.20;99.90
4687;DHT22;2357;47.316;-1.348;2023-02-26T06:06:41;3.10;99.90
4687;DHT22;2357;47.316;-1.348;2023-02-26T06:09:07;3.00;99.90
4687;DHT22;2357;47.316;-1.348;2023-02-26T06:11:33;3.10;99.90
4687;DHT22;2357;47.316;-1.348;2023-02-26T06:13:59;3.10;99.90
4687;DHT22;2357;47.316;-1.348;2023-02-26T06:16:25;3.00;99.90
4687;DHT22;2357;47.316;-1.348;2023-02-26T06:18:51;3.00;99.90
4687;DHT22;2357;47.316;-1.348;2023-02-26T06:21:17;2.90;99.90
4687;DHT22;2357;47.316;-1.348;2023-02-26T06:23:43;2.90;99.90
4687;DHT22;2357;47.316;-1.348;2023-02-26T06:26:09;2.90;99.90
4687;DHT22;2357;47.316;-1.348;2023-02-26T06:28:34;2.80;99.90
4687;DHT22;2357;47.316;-1.348;2023-02-26T06:31:00;2.80;99.90
4687;DHT22;2357;47.316;-1.348;2023-02-26T06:33:26;2.80;99.90
4687;DHT22;2357;47.316;-1.348;2023-02-26T06:35:52;2.80;99.90
4687;DHT22;2357;47.316;-1.348;2023-02-26T06:38:18;2.80;99.90
4687;DHT22;2357;47.316;-1.348;2023-02-26T06:40:44;2.60;99.90
4687;DHT22;2357;47.316;-1.348;2023-02-26T06:43:11;2.70;99.90
4687;DHT22;2357;47.316;-1.348;2023-02-26T06:45:36;2.70;99.90
4687;DHT22;2357;47.316;-1.348;2023-02-26T06:48:02;2.70;99.90
4687;DHT22;2357;47.316;-1.348;2023-02-26T06:50:28;2.80;99.90
4687;DHT22;2357;47.316;-1.348;2023-02-26T06:52:54;2.80;99.90
4687;DHT22;2357;47.316;-1.348;2023-02-26T06:55:19;2.70;99.90
4687;DHT22;2357;47.316;-1.348;2023-02-26T06:57:46;2.80;99.90
4687;DHT22;2357;47.316;-1.348;2023-02-26T07:00:13;2.80;99.90
4687;DHT22;2357;47.316;-1.348;2023-02-26T07:02:38;2.80;99.90
4687;DHT22;2357;47.316;-1.348;2023-02-26T07:05:04;2.80;99.90
4687;DHT22;2357;47.316;-1.348;2023-02-26T07:07:30;2.80;99.90
4687;DHT22;2357;47.316;-1.348;2023-02-26T07:09:56;2.80;99.90
4687;DHT22;2357;47.316;-1.348;2023-02-26T07:12:21;2.80;99.90
4687;DHT22;2357;47.316;-1.348;2023-02-26T07:14:47;2.80;99.90
4687;DHT22;2357;47.316;-1.348;2023-02-26T07:17:13;2.80;99.90
4687;DHT22;2357;47.316;-1.348;2023-02-26T07:19:45;2.80;99.90
4687;DHT22;2357;47.316;-1.348;2023-02-26T07:22:11;2.80;99.90
4687;DHT22;2357;47.316;-1.348;2023-02-26T07:24:37;2.80;99.90
4687;DHT22;2357;47.316;-1.348;2023-02-26T07:27:02;2.80;99.90
4687;DHT22;2357;47.316;-1.348;2023-02-26T07:29:28;2.80;99.90
4687;DHT22;2357;47.316;-1.348;2023-02-26T07:31:54;2.80;99.90
4687;DHT22;2357;47.316;-1.348;2023-02-26T07:34:19;2.90;99.90
4687;DHT22;2357;47.316;-1.348;2023-02-26T07:36:45;2.90;99.90
4687;DHT22;2357;47.316;-1.348;2023-02-26T07:39:11;2.90;99.90
4687;DHT22;2357;47.316;-1.348;2023-02-26T07:41:37;2.90;99.90
4687;DHT22;2357;47.316;-1.348;2023-02-26T07:44:02;2.90;99.90
4687;DHT22;2357;47.316;-1.348;2023-02-26T07:46:28;3.10;99.90
4687;DHT22;2357;47.316;-1.348;2023-02-26T07:48:54;3.10;99.90
4687;DHT22;2357;47.316;-1.348;2023-02-26T07:51:19;3.10;99.90
4687;DHT22;2357;47.316;-1.348;2023-02-26T07:53:45;3.10;99.90
4687;DHT22;2357;47.316;-1.348;2023-02-26T07:56:10;3.20;99.90
4687;DHT22;2357;47.316;-1.348;2023-02-26T07:58:36;3.20;99.90
4687;DHT22;2357;47.316;-1.348;2023-02-26T08:01:02;3.20;99.90
4687;DHT22;2357;47.316;-1.348;2023-02-26T08:03:27;3.30;99.90
4687;DHT22;2357;47.316;-1.348;2023-02-26T08:05:53;3.30;99.90
4687;DHT22;2357;47.316;-1.348;2023-02-26T08:08:19;3.30;99.90
4687;DHT22;2357;47.316;-1.348;2023-02-26T08:10:44;3.30;99.90
4687;DHT22;2357;47.316;-1.348;2023-02-26T08:13:10;3.40;99.90
4687;DHT22;2357;47.316;-1.348;2023-02-26T08:15:35;3.40;99.90
4687;DHT22;2357;47.316;-1.348;2023-02-26T08:18:01;3.40;99.90
4687;DHT22;2357;47.316;-1.348;2023-02-26T08:20:27;3.30;99.90
4687;DHT22;2357;47.316;-1.348;2023-02-26T08:22:52;3.50;99.90
4687;DHT22;2357;47.316;-1.348;2023-02-26T08:25:18;3.60;99.90
4687;DHT22;2357;47.316;-1.348;2023-02-26T08:27:44;3.50;99.90
4687;DHT22;2357;47.316;-1.348;2023-02-26T08:30:10;3.70;99.90
4687;DHT22;2357;47.316;-1.348;2023-02-26T08:32:36;3.80;99.90
4687;DHT22;2357;47.316;-1.348;2023-02-26T08:35:04;3.70;99.90
4687;DHT22;2357;47.316;-1.348;2023-02-26T08:37:30;3.80;99.90
4687;DHT22;2357;47.316;-1.348;2023-02-26T08:39:55;3.90;99.90
4687;DHT22;2357;47.316;-1.348;2023-02-26T08:42:21;3.90;99.90
4687;DHT22;2357;47.316;-1.348;2023-02-26T08:44:47;3.90;99.90
4687;DHT22;2357;47.316;-1.348;2023-02-26T08:47:13;4.00;99.90
4687;DHT22;2357;47.316;-1.348;2023-02-26T08:49:38;4.00;99.90
4687;DHT22;2357;47.316;-1.348;2023-02-26T08:52:04;4.10;99.90
4687;DHT22;2357;47.316;-1.348;2023-02-26T08:54:30;4.20;99.90
4687;DHT22;2357;47.316;-1.348;2023-02-26T08:56:56;4.20;99.90
4687;DHT22;2357;47.316;-1.348;2023-02-26T08:59:23;4.30;99.90
4687;DHT22;2357;47.316;-1.348;2023-02-26T09:01:49;4.40;99.90
4687;DHT22;2357;47.316;-1.348;2023-02-26T09:04:15;4.40;99.90
4687;DHT22;2357;47.316;-1.348;2023-02-26T09:06:41;4.30;99.90
4687;DHT22;2357;47.316;-1.348;2023-02-26T09:09:06;4.40;99.90
4687;DHT22;2357;47.316;-1.348;2023-02-26T09:11:32;4.40;99.90
4687;DHT22;2357;47.316;-1.348;2023-02-26T09:13:58;4.50;99.90
4687;DHT22;2357;47.316;-1.348;2023-02-26T09:16:25;4.50;99.90
4687;DHT22;2357;47.316;-1.348;2023-02-26T09:18:50;4.60;99.90
4687;DHT22;2357;47.316;-1.348;2023-02-26T09:21:16;4.60;99.90
4687;DHT22;2357;47.316;-1.348;2023-02-26T09:23:42;4.60;99.90
4687;DHT22;2357;47.316;-1.348;2023-02-26T09:26:08;4.60;99.90
4687;DHT22;2357;47.316;-1.348;2023-02-26T09:28:34;4.70;99.90
4687;DHT22;2357;47.316;-1.348;2023-02-26T09:31:00;4.80;99.90
4687;DHT22;2357;47.316;-1.348;2023-02-26T09:33:27;4.80;99.90
4687;DHT22;2357;47.316;-1.348;2023-02-26T09:35:52;4.90;99.90
4687;DHT22;2357;47.316;-1.348;2023-02-26T09:38:18;4.90;99.90
4687;DHT22;2357;47.316;-1.348;2023-02-26T09:45:52;5.10;99.90
4687;DHT22;2357;47.316;-1.348;2023-02-26T09:48:20;5.10;99.90
4687;DHT22;2357;47.316;-1.348;2023-02-26T09:50:52;5.10;99.90
4687;DHT22;2357;47.316;-1.348;2023-02-26T09:53:27;5.20;99.90
4687;DHT22;2357;47.316;-1.348;2023-02-26T09:56:02;5.20;99.90
4687;DHT22;2357;47.316;-1.348;2023-02-26T10:17:06;5.60;99.90
4687;DHT22;2357;47.316;-1.348;2023-02-26T10:19:42;5.70;99.90
4687;DHT22;2357;47.316;-1.348;2023-02-26T10:22:27;5.80;99.90
4687;DHT22;2357;47.316;-1.348;2023-02-26T10:25:05;5.80;99.90
4687;DHT22;2357;47.316;-1.348;2023-02-26T10:30:44;5.90;99.90
4687;DHT22;2357;47.316;-1.348;2023-02-26T10:36:25;6.00;99.90
4687;DHT22;2357;47.316;-1.348;2023-02-26T10:39:00;6.00;99.90
4687;DHT22;2357;47.316;-1.348;2023-02-26T10:41:30;6.00;99.90
4687;DHT22;2357;47.316;-1.348;2023-02-26T10:44:12;6.10;99.90
4687;DHT22;2357;47.316;-1.348;2023-02-26T10:46:52;6.10;99.90
4687;DHT22;2357;47.316;-1.348;2023-02-26T10:49:39;6.30;99.90
4687;DHT22;2357;47.316;-1.348;2023-02-26T10:52:17;6.30;99.90
4687;DHT22;2357;47.316;-1.348;2023-02-26T10:57:29;6.40;99.90
4687;DHT22;2357;47.316;-1.348;2023-02-26T10:59:58;6.40;99.90
4687;DHT22;2357;47.316;-1.348;2023-02-26T11:02:36;6.40;99.90
4687;DHT22;2357;47.316;-1.348;2023-02-26T11:05:04;6.50;99.90
4687;DHT22;2357;47.316;-1.348;2023-02-26T11:07:31;6.50;99.90
4687;DHT22;2357;47.316;-1.348;2023-02-26T11:09:58;6.60;99.90
4687;DHT22;2357;47.316;-1.348;2023-02-26T11:12:25;6.70;99.90
4687;DHT22;2357;47.316;-1.348;2023-02-26T11:14:51;6.80;99.90
4687;DHT22;2357;47.316;-1.348;2023-02-26T11:17:26;6.80;99.90
4687;DHT22;2357;47.316;-1.348;2023-02-26T11:20:29;6.80;99.90
4687;DHT22;2357;47.316;-1.348;2023-02-26T11:22:57;6.80;99.90
4687;DHT22;2357;47.316;-1.348;2023-02-26T11:25:27;6.90;99.90
4687;DHT22;2357;47.316;-1.348;2023-02-26T11:28:03;6.90;99.90
4687;DHT22;2357;47.316;-1.348;2023-02-26T11:30:33;7.10;99.90
4687;DHT22;2357;47.316;-1.348;2023-02-26T11:33:05;7.10;99.90
4687;DHT22;2357;47.316;-1.348;2023-02-26T11:35:32;7.40;99.90
4687;DHT22;2357;47.316;-1.348;2023-02-26T11:37:59;7.40;99.90
4687;DHT22;2357;47.316;-1.348;2023-02-26T11:43:14;7.20;99.90
4687;DHT22;2357;47.316;-1.348;2023-02-26T11:45:44;7.10;99.90
4687;DHT22;2357;47.316;-1.348;2023-02-26T11:51:04;7.30;99.90
4687;DHT22;2357;47.316;-1.348;2023-02-26T11:53:34;7.30;99.90
4687;DHT22;2357;47.316;-1.348;2023-02-26T11:56:10;7.30;99.90
4687;DHT22;2357;47.316;-1.348;2023-02-26T11:58:38;7.50;99.90
4687;DHT22;2357;47.316;-1.348;2023-02-26T12:01:06;7.60;99.90
4687;DHT22;2357;47.316;-1.348;2023-02-26T12:03:37;7.80;99.90
4687;DHT22;2357;47.316;-1.348;2023-02-26T12:06:06;7.70;99.90
4687;DHT22;2357;47.316;-1.348;2023-02-26T12:08:34;7.80;99.90
4687;DHT22;2357;47.316;-1.348;2023-02-26T12:19:39;7.60;99.90
4687;DHT22;2357;47.316;-1.348;2023-02-26T12:42:17;9.10;99.90
4687;DHT22;2357;47.316;-1.348;2023-02-26T12:45:24;9.10;99.90
4687;DHT22;2357;47.316;-1.348;2023-02-26T13:01:34;8.10;99.90
4687;DHT22;2357;47.316;-1.348;2023-02-26T13:09:32;8.60;99.90
4687;DHT22;2357;47.316;-1.348;2023-02-26T13:12:19;9.10;99.90
4687;DHT22;2357;47.316;-1.348;2023-02-26T13:15:20;9.20;99.90
4687;DHT22;2357;47.316;-1.348;2023-02-26T13:18:09;9.70;99.90
4687;DHT22;2357;47.316;-1.348;2023-02-26T13:20:39;9.70;99.90
4687;DHT22;2357;47.316;-1.348;2023-02-26T13:23:13;9.80;99.90
4687;DHT22;2357;47.316;-1.348;2023-02-26T13:26:01;10.00;99.90
4687;DHT22;2357;47.316;-1.348;2023-02-26T13:28:58;10.20;99.90
4687;DHT22;2357;47.316;-1.348;2023-02-26T13:33:54;10.20;99.90
4687;DHT22;2357;47.316;-1.348;2023-02-26T13:36:23;10.10;99.90
4687;DHT22;2357;47.316;-1.348;2023-02-26T13:47:29;10.50;99.90
4687;DHT22;2357;47.316;-1.348;2023-02-26T13:55:43;10.70;99.90
4687;DHT22;2357;47.316;-1.348;2023-02-26T14:01:13;10.40;99.90
4687;DHT22;2357;47.316;-1.348;2023-02-26T14:03:45;10.30;99.90
4687;DHT22;2357;47.316;-1.348;2023-02-26T14:08:55;10.50;99.90
4687;DHT22;2357;47.316;-1.348;2023-02-26T14:11:37;10.50;99.90
4687;DHT22;2357;47.316;-1.348;2023-02-26T14:14:12;10.70;99.90
4687;DHT22;2357;47.316;-1.348;2023-02-26T14:16:40;10.80;99.90
4687;DHT22;2357;47.316;-1.348;2023-02-26T14:21:47;11.00;99.90
4687;DHT22;2357;47.316;-1.348;2023-02-26T14:24:36;11.00;99.90
4687;DHT22;2357;47.316;-1.348;2023-02-26T14:27:22;10.90;99.90
4687;DHT22;2357;47.316;-1.348;2023-02-26T14:32:48;10.80;99.90
4687;DHT22;2357;47.316;-1.348;2023-02-26T14:35:22;10.80;99.90
4687;DHT22;2357;47.316;-1.348;2023-02-26T14:38:01;10.50;99.90
4687;DHT22;2357;47.316;-1.348;2023-02-26T14:40:32;10.60;99.90
4687;DHT22;2357;47.316;-1.348;2023-02-26T14:43:03;11.00;99.90
4687;DHT22;2357;47.316;-1.348;2023-02-26T14:45:30;10.70;99.90
4687;DHT22;2357;47.316;-1.348;2023-02-26T14:47:59;10.80;99.90
4687;DHT22;2357;47.316;-1.348;2023-02-26T14:50:28;10.50;99.90
4687;DHT22;2357;47.316;-1.348;2023-02-26T15:01:06;11.00;99.90
4687;DHT22;2357;47.316;-1.348;2023-02-26T15:06:25;11.00;99.90
4687;DHT22;2357;47.316;-1.348;2023-02-26T15:14:17;10.60;99.90
4687;DHT22;2357;47.316;-1.348;2023-02-26T15:25:38;10.80;99.90
4687;DHT22;2357;47.316;-1.348;2023-02-26T15:28:09;10.80;99.90
4687;DHT22;2357;47.316;-1.348;2023-02-26T15:30:35;10.70;99.90
4687;DHT22;2357;47.316;-1.348;2023-02-26T15:33:03;11.30;99.90
4687;DHT22;2357;47.316;-1.348;2023-02-26T15:35:30;13.70;98.20
4687;DHT22;2357;47.316;-1.348;2023-02-26T15:37:59;16.40;95.40
4687;DHT22;2357;47.316;-1.348;2023-02-26T15:40:29;18.60;87.10
4687;DHT22;2357;47.316;-1.348;2023-02-26T15:42:57;18.20;78.00
4687;DHT22;2357;47.316;-1.348;2023-02-26T15:45:47;17.70;73.90
4687;DHT22;2357;47.316;-1.348;2023-02-26T15:48:21;16.90;71.60
4687;DHT22;2357;47.316;-1.348;2023-02-26T15:50:53;16.40;69.30
4687;DHT22;2357;47.316;-1.348;2023-02-26T15:53:29;14.60;66.80
4687;DHT22;2357;47.316;-1.348;2023-02-26T15:55:57;15.60;70.80
4687;DHT22;2357;47.316;-1.348;2023-02-26T15:59:03;14.90;69.00
4687;DHT22;2357;47.316;-1.348;2023-02-26T16:01:31;14.30;71.60
4687;DHT22;2357;47.316;-1.348;2023-02-26T16:04:01;12.90;71.80
4687;DHT22;2357;47.316;-1.348;2023-02-26T16:06:39;11.20;71.10
4687;DHT22;2357;47.316;-1.348;2023-02-26T16:09:07;10.50;73.30
4687;DHT22;2357;47.316;-1.348;2023-02-26T16:11:37;10.10;76.70
4687;DHT22;2357;47.316;-1.348;2023-02-26T16:14:04;10.00;78.90
4687;DHT22;2357;47.316;-1.348;2023-02-26T16:16:43;9.90;79.30
4687;DHT22;2357;47.316;-1.348;2023-02-26T16:19:28;10.60;78.20
4687;DHT22;2357;47.316;-1.348;2023-02-26T16:21:56;10.50;76.30
4687;DHT22;2357;47.316;-1.348;2023-02-26T16:24:22;10.50;78.60
4687;DHT22;2357;47.316;-1.348;2023-02-26T16:26:53;10.20;79.10
4687;DHT22;2357;47.316;-1.348;2023-02-26T16:29:24;10.20;79.40
4687;DHT22;2357;47.316;-1.348;2023-02-26T16:31:54;11.50;79.20
4687;DHT22;2357;47.316;-1.348;2023-02-26T16:39:44;11.00;76.60
4687;DHT22;2357;47.316;-1.348;2023-02-26T16:42:21;10.10;77.30
4687;DHT22;2357;47.316;-1.348;2023-02-26T16:45:00;9.50;79.70
4687;DHT22;2357;47.316;-1.348;2023-02-26T16:47:29;9.10;80.20
4687;DHT22;2357;47.316;-1.348;2023-02-26T16:49:55;8.90;82.20
4687;DHT22;2357;47.316;-1.348;2023-02-26T16:52:23;8.80;82.70
4687;DHT22;2357;47.316;-1.348;2023-02-26T16:55:02;8.80;85.20
4687;DHT22;2357;47.316;-1.348;2023-02-26T16:57:34;8.80;88.10
4687;DHT22;2357;47.316;-1.348;2023-02-26T17:00:03;8.60;86.90
4687;DHT22;2357;47.316;-1.348;2023-02-26T17:02:32;8.40;85.70
4687;DHT22;2357;47.316;-1.348;2023-02-26T17:05:13;8.30;85.30
4687;DHT22;2357;47.316;-1.348;2023-02-26T17:07:47;8.30;85.40
4687;DHT22;2357;47.316;-1.348;2023-02-26T17:10:31;8.10;83.50
4687;DHT22;2357;47.316;-1.348;2023-02-26T17:13:23;8.00;82.10
4687;DHT22;2357;47.316;-1.348;2023-02-26T17:15:50;7.90;83.90
4687;DHT22;2357;47.316;-1.348;2023-02-26T17:18:16;7.90;83.80
4687;DHT22;2357;47.316;-1.348;2023-02-26T17:20:42;7.80;82.60
4687;DHT22;2357;47.316;-1.348;2023-02-26T17:23:09;7.60;82.40
4687;DHT22;2357;47.316;-1.348;2023-02-26T17:25:40;7.60;83.70
4687;DHT22;2357;47.316;-1.348;2023-02-26T17:28:06;7.60;83.40
4687;DHT22;2357;47.316;-1.348;2023-02-26T17:30:32;7.50;83.00
4687;DHT22;2357;47.316;-1.348;2023-02-26T17:33:00;7.60;84.00
4687;DHT22;2357;47.316;-1.348;2023-02-26T17:35:26;7.50;85.80
4687;DHT22;2357;47.316;-1.348;2023-02-26T17:37:53;7.40;84.80
4687;DHT22;2357;47.316;-1.348;2023-02-26T17:40:25;7.40;85.80
4687;DHT22;2357;47.316;-1.348;2023-02-26T17:42:52;7.20;85.20
4687;DHT22;2357;47.316;-1.348;2023-02-26T17:45:18;7.20;86.40
4687;DHT22;2357;47.316;-1.348;2023-02-26T17:47:45;7.30;88.30
4687;DHT22;2357;47.316;-1.348;2023-02-26T17:50:25;7.30;89.10
4687;DHT22;2357;47.316;-1.348;2023-02-26T17:52:53;7.20;88.70
4687;DHT22;2357;47.316;-1.348;2023-02-26T17:55:19;7.20;90.30
4687;DHT22;2357;47.316;-1.348;2023-02-26T17:57:45;7.20;90.60
4687;DHT22;2357;47.316;-1.348;2023-02-26T18:00:13;7.20;90.90
4687;DHT22;2357;47.316;-1.348;2023-02-26T18:02:40;7.00;90.60
4687;DHT22;2357;47.316;-1.348;2023-02-26T18:05:06;7.00;91.00
4687;DHT22;2357;47.316;-1.348;2023-02-26T18:07:32;6.80;90.40
4687;DHT22;2357;47.316;-1.348;2023-02-26T18:09:58;6.90;91.40
4687;DHT22;2357;47.316;-1.348;2023-02-26T18:12:24;6.70;90.90
4687;DHT22;2357;47.316;-1.348;2023-02-26T18:14:50;6.80;92.20
4687;DHT22;2357;47.316;-1.348;2023-02-26T18:17:25;6.80;92.10
4687;DHT22;2357;47.316;-1.348;2023-02-26T18:19:51;6.80;93.10
4687;DHT22;2357;47.316;-1.348;2023-02-26T18:22:19;6.70;92.60
4687;DHT22;2357;47.316;-1.348;2023-02-26T18:24:46;6.60;92.20
4687;DHT22;2357;47.316;-1.348;2023-02-26T18:27:17;6.60;92.80
4687;DHT22;2357;47.316;-1.348;2023-02-26T18:29:44;6.60;93.20
4687;DHT22;2357;47.316;-1.348;2023-02-26T18:32:16;6.70;94.00
4687;DHT22;2357;47.316;-1.348;2023-02-26T18:34:42;6.70;93.90
4687;DHT22;2357;47.316;-1.348;2023-02-26T18:37:25;6.70;94.70
4687;DHT22;2357;47.316;-1.348;2023-02-26T18:39:51;6.60;94.40
4687;DHT22;2357;47.316;-1.348;2023-02-26T18:42:22;6.60;94.90
4687;DHT22;2357;47.316;-1.348;2023-02-26T18:44:49;6.50;94.90
4687;DHT22;2357;47.316;-1.348;2023-02-26T18:47:15;6.40;95.30
4687;DHT22;2357;47.316;-1.348;2023-02-26T18:49:41;6.30;95.50
4687;DHT22;2357;47.316;-1.348;2023-02-26T18:52:07;6.30;95.70
4687;DHT22;2357;47.316;-1.348;2023-02-26T18:54:33;6.20;95.80
4687;DHT22;2357;47.316;-1.348;2023-02-26T18:56:59;6.00;96.10
4687;DHT22;2357;47.316;-1.348;2023-02-26T18:59:25;6.10;97.50
4687;DHT22;2357;47.316;-1.348;2023-02-26T19:01:50;6.10;98.00
4687;DHT22;2357;47.316;-1.348;2023-02-26T19:04:16;6.00;98.00
4687;DHT22;2357;47.316;-1.348;2023-02-26T19:06:41;5.90;97.80
4687;DHT22;2357;47.316;-1.348;2023-02-26T19:09:07;5.90;98.80
4687;DHT22;2357;47.316;-1.348;2023-02-26T19:11:34;6.00;99.90
4687;DHT22;2357;47.316;-1.348;2023-02-26T19:14:01;6.00;99.90
4687;DHT22;2357;47.316;-1.348;2023-02-26T19:16:27;5.90;99.80
4687;DHT22;2357;47.316;-1.348;2023-02-26T19:18:55;5.80;99.50
4687;DHT22;2357;47.316;-1.348;2023-02-26T19:21:20;5.80;99.80
4687;DHT22;2357;47.316;-1.348;2023-02-26T19:23:46;5.60;99.30
4687;DHT22;2357;47.316;-1.348;2023-02-26T19:26:12;5.60;99.90
4687;DHT22;2357;47.316;-1.348;2023-02-26T19:28:38;5.60;99.90
4687;DHT22;2357;47.316;-1.348;2023-02-26T19:31:03;5.60;99.70
4687;DHT22;2357;47.316;-1.348;2023-02-26T19:33:30;5.60;99.90
4687;DHT22;2357;47.316;-1.348;2023-02-26T19:35:56;5.70;99.80
4687;DHT22;2357;47.316;-1.348;2023-02-26T19:38:22;5.70;99.90
4687;DHT22;2357;47.316;-1.348;2023-02-26T19:40:49;5.50;99.90